Thunder radar more information blitzortung!


Radar de pluja more information rain snow radar


Visita la nostra xarxa de llocs de meteo:

Template documentation
and downloads

And another site



No particular awareness of the weather is required.    There are no Weather-warnings

Pagina Historial Weather Underground text

Diari Resum Agost 2, 2017 Unitats:  Imperial    Mètric   Tant
« Previous Dia
SegĂźent Dia »
Diari Setmana Mensual Anual Personalitzada
  Maxima: Minima: Media:
Temperatura: TemperatureC °F 21.5 °F 29.9 °F
Punt de rosada: DewpointC °F 15.4 °F 17.4 °F
Humitat: Humidity % 37 % 48 %
Wind Speed: WindSpeedKMH mph 0.0 mph 6.7 mph
RĂ fegues de vent: WindSpeedGustKMH mph - -
Vent:- - SE
Pression baro: PressurehPa in 1012.8 in -
Precipitacions: 0.0 in    
Historical Graphs
 
 
Dades de taula per Agost 2, 2017
Temps Temperatura Punt de rosada Pression baro Vent Wind Speed RĂ fegues de vent Humitat Rainfall Rate (Hourly)
TemperatureC °F DewpointC °F PressurehPa in Calm     Humidity % HourlyPrecipMM in
00:02 24.0 °F 21.1 °F 1016.8 in SW 3.7 mph 3.7 mph 84 % 0.0 in
00:05 22.0 °F 19.0 °F 1015.8 in WNW 1.6 mph 3.2 mph 83 % 0.0 in
00:07 23.9 °F 21.1 °F 1016.8 in WSW 2.3 mph 2.3 mph 84 % 0.0 in
00:15 21.7 °F 17.9 °F 1015.8 in NNW 1.6 mph 3.2 mph 79 % 0.0 in
00:25 22.0 °F 17.6 °F 1015.8 in Calm   3.2 mph 76 % 0.0 in
00:35 21.9 °F 17.5 °F 1014.8 in NE 1.6 mph 1.6 mph 76 % 0.0 in
00:45 21.7 °F 17.3 °F 1014.8 in NE 4.8 mph 4.8 mph 76 % 0.0 in
00:55 21.6 °F 17.4 °F 1015.8 in NNE 3.2 mph 6.4 mph 77 % 0.0 in
01:05 21.8 °F 17.2 °F 1015.8 in NNE 3.2 mph 6.4 mph 75 % 0.0 in
01:15 21.6 °F 17.0 °F 1015.8 in NNE 1.6 mph 1.6 mph 75 % 0.0 in
01:25 21.5 °F 16.7 °F 1015.8 in NNE 3.2 mph 3.2 mph 74 % 0.0 in
01:35 21.5 °F 16.4 °F 1015.8 in NNE 1.6 mph 6.4 mph 73 % 0.0 in
01:45 21.7 °F 16.4 °F 1015.8 in NE 3.2 mph 6.4 mph 72 % 0.0 in
01:55 21.7 °F 16.2 °F 1015.8 in NE 1.6 mph 4.8 mph 71 % 0.0 in
02:05 21.6 °F 16.1 °F 1015.8 in NE 3.2 mph 4.8 mph 71 % 0.0 in
02:15 21.5 °F 16.0 °F 1015.8 in ENE 1.6 mph 3.2 mph 71 % 0.0 in
02:25 21.6 °F 16.1 °F 1015.8 in NE 1.6 mph 3.2 mph 71 % 0.0 in
02:35 21.7 °F 16.2 °F 1015.8 in NNE 1.6 mph 4.8 mph 71 % 0.0 in
02:45 22.0 °F 16.5 °F 1015.8 in North 1.6 mph 3.2 mph 71 % 0.0 in
02:55 22.0 °F 16.5 °F 1015.8 in NNW 1.6 mph 3.2 mph 71 % 0.0 in
03:05 22.4 °F 16.9 °F 1016.8 in Calm   3.2 mph 71 % 0.0 in
03:15 23.1 °F 17.3 °F 1016.8 in NW 1.6 mph 3.2 mph 70 % 0.0 in
03:25 23.0 °F 17.2 °F 1015.8 in SW 3.2 mph 3.2 mph 70 % 0.0 in
03:35 23.2 °F 17.4 °F 1016.8 in WSW 3.2 mph 3.2 mph 70 % 0.0 in
03:45 23.6 °F 17.8 °F 1016.8 in Calm   4.8 mph 70 % 0.0 in
03:55 24.5 °F 18.2 °F 1016.8 in SSW 1.6 mph 3.2 mph 68 % 0.0 in
04:05 24.9 °F 18.6 °F 1016.8 in SW 1.6 mph 3.2 mph 68 % 0.0 in
04:15 25.6 °F 18.6 °F 1016.8 in SW 1.6 mph 3.2 mph 65 % 0.0 in
04:25 26.1 °F 18.5 °F 1017.8 in Calm   3.2 mph 63 % 0.0 in
04:35 26.3 °F 18.4 °F 1016.8 in East 1.6 mph 4.8 mph 62 % 0.0 in
04:45 26.7 °F 18.6 °F 1016.8 in ESE 3.2 mph 4.8 mph 61 % 0.0 in
04:55 27.4 °F 18.9 °F 1017.8 in East 3.2 mph 4.8 mph 60 % 0.0 in
05:05 27.9 °F 18.9 °F 1017.8 in NE 3.2 mph 3.2 mph 58 % 0.0 in
05:15 28.9 °F 19.2 °F 1017.8 in NNE 1.6 mph 3.2 mph 56 % 0.0 in
05:25 29.2 °F 18.9 °F 1017.8 in NE 3.2 mph 6.4 mph 54 % 0.0 in
05:35 29.4 °F 18.5 °F 1016.8 in NE 3.2 mph 8.0 mph 52 % 0.0 in
05:45 30.1 °F 18.8 °F 1016.8 in ENE 4.8 mph 4.8 mph 51 % 0.0 in
10:47 30.0 °F 18.8 °F 1016.8 in ESE 7.4 mph 7.4 mph 51 % 0.0 in
10:52 29.8 °F 18.3 °F 1016.8 in East 8.7 mph 8.7 mph 50 % 0.0 in
10:57 29.9 °F 18.3 °F 1016.8 in East 7.4 mph 7.4 mph 50 % 0.0 in
11:02 30.0 °F 18.4 °F 1016.8 in East 9.3 mph 9.3 mph 50 % 0.0 in
11:07 30.0 °F 18.4 °F 1015.8 in ENE 9.3 mph 9.3 mph 50 % 0.0 in
11:12 30.0 °F 18.4 °F 1015.8 in NNE 11.1 mph 11.1 mph 50 % 0.0 in
11:17 30.7 °F 19.1 °F 1015.8 in NE 5.6 mph 5.6 mph 50 % 0.0 in
11:22 30.8 °F 18.5 °F 1015.8 in ESE 11.9 mph 11.9 mph 48 % 0.0 in
11:27 30.7 °F 18.4 °F 1015.8 in ENE 13.0 mph 13.0 mph 48 % 0.0 in
11:32 31.1 °F 18.8 °F 1015.8 in ENE 6.4 mph 6.4 mph 48 % 0.0 in
11:37 31.2 °F 18.6 °F 1015.8 in NNE 9.5 mph 9.5 mph 47 % 0.0 in
11:42 31.3 °F 18.7 °F 1015.8 in SSE 11.1 mph 11.1 mph 47 % 0.0 in
11:47 31.3 °F 18.3 °F 1015.8 in SE 13.0 mph 13.0 mph 46 % 0.0 in
11:52 31.7 °F 18.7 °F 1015.8 in ESE 9.5 mph 9.5 mph 46 % 0.0 in
12:01 32.5 °F 19.4 °F 1015.8 in East 9.0 mph 9.0 mph 46 % 0.0 in
12:06 32.1 °F 19.0 °F 1015.8 in East 9.3 mph 9.3 mph 46 % 0.0 in
12:11 32.6 °F 19.5 °F 1015.8 in ESE 5.6 mph 5.6 mph 46 % 0.0 in
12:16 32.7 °F 19.2 °F 1015.8 in ENE 5.6 mph 5.6 mph 45 % 0.0 in
12:21 32.7 °F 19.2 °F 1015.8 in ENE 9.3 mph 9.3 mph 45 % 0.0 in
12:26 32.9 °F 19.4 °F 1015.8 in ENE 5.6 mph 5.6 mph 45 % 0.0 in
12:31 33.1 °F 18.8 °F 1015.8 in ENE 18.5 mph 18.5 mph 43 % 0.0 in
12:36 33.1 °F 18.8 °F 1015.8 in ENE 7.4 mph 7.4 mph 43 % 0.0 in
12:41 33.1 °F 18.4 °F 1015.8 in ENE 13.0 mph 13.0 mph 42 % 0.0 in
12:46 33.3 °F 18.7 °F 1015.8 in ESE 9.3 mph 9.3 mph 42 % 0.0 in
12:51 33.9 °F 19.2 °F 1015.8 in South 7.4 mph 7.4 mph 42 % 0.0 in
12:56 33.6 °F 18.1 °F 1015.8 in ENE 13.0 mph 13.0 mph 40 % 0.0 in
13:01 33.7 °F 18.6 °F 1015.8 in ESE 5.3 mph 5.3 mph 41 % 0.0 in
13:06 34.1 °F 18.6 °F 1015.8 in ESE 9.3 mph 9.3 mph 40 % 0.0 in
13:11 34.1 °F 18.6 °F 1015.8 in East 13.0 mph 13.0 mph 40 % 0.0 in
13:16 34.4 °F 18.8 °F 1015.8 in North 10.0 mph 10.0 mph 40 % 0.0 in
13:21 34.3 °F 18.3 °F 1015.8 in SE 9.3 mph 9.3 mph 39 % 0.0 in
13:26 34.6 °F 18.6 °F 1015.8 in ESE 14.8 mph 14.8 mph 39 % 0.0 in
13:31 34.4 °F 18.8 °F 1015.8 in ESE 14.8 mph 14.8 mph 40 % 0.0 in
13:36 34.4 °F 18.4 °F 1014.8 in SE 13.0 mph 13.0 mph 39 % 0.0 in
13:41 34.6 °F 19.1 °F 1014.8 in ESE 11.1 mph 11.1 mph 40 % 0.0 in
13:46 34.5 °F 18.6 °F 1014.8 in ENE 13.0 mph 13.0 mph 39 % 0.0 in
13:51 34.1 °F 17.8 °F 1015.8 in SE 14.8 mph 14.8 mph 38 % 0.0 in
13:56 33.7 °F 17.8 °F 1015.8 in East 16.7 mph 16.7 mph 39 % 0.0 in
14:01 34.0 °F 18.1 °F 1015.8 in East 14.8 mph 14.8 mph 39 % 0.0 in
14:06 34.4 °F 18.4 °F 1015.8 in SW 5.6 mph 5.6 mph 39 % 0.0 in
14:11 34.3 °F 18.3 °F 1015.8 in SSE 11.1 mph 11.1 mph 39 % 0.0 in
14:16 33.9 °F 18.0 °F 1015.8 in East 18.5 mph 18.5 mph 39 % 0.0 in
14:21 34.2 °F 18.3 °F 1015.8 in SE 9.3 mph 9.3 mph 39 % 0.0 in
14:26 33.6 °F 17.3 °F 1015.8 in NNW 11.1 mph 11.1 mph 38 % 0.0 in
14:31 33.3 °F 17.4 °F 1015.8 in ENE 16.1 mph 16.1 mph 39 % 0.0 in
14:36 33.1 °F 17.3 °F 1015.8 in ESE 24.1 mph 24.1 mph 39 % 0.0 in
14:41 33.2 °F 17.4 °F 1015.8 in ESE 17.5 mph 17.5 mph 39 % 0.0 in
14:46 33.2 °F 17.4 °F 1015.8 in SE 9.3 mph 9.3 mph 39 % 0.0 in
14:51 33.1 °F 17.3 °F 1015.8 in ESE 14.0 mph 14.0 mph 39 % 0.0 in
14:56 32.9 °F 17.5 °F 1015.8 in East 14.8 mph 14.8 mph 40 % 0.0 in
15:01 32.9 °F 17.9 °F 1015.8 in East 14.8 mph 14.8 mph 41 % 0.0 in
15:06 32.7 °F 17.7 °F 1015.8 in ESE 14.8 mph 14.8 mph 41 % 0.0 in
15:11 32.8 °F 17.8 °F 1015.8 in East 13.0 mph 13.0 mph 41 % 0.0 in
15:16 32.7 °F 18.1 °F 1015.8 in NNE 25.9 mph 25.9 mph 42 % 0.0 in
15:21 32.2 °F 17.7 °F 1015.8 in ESE 13.0 mph 13.0 mph 42 % 0.0 in
15:26 32.3 °F 17.8 °F 1015.8 in ESE 9.3 mph 9.3 mph 42 % 0.0 in
15:31 32.3 °F 17.8 °F 1015.8 in East 11.1 mph 11.9 mph 42 % 0.0 in
15:36 32.4 °F 18.2 °F 1015.8 in ESE 9.3 mph 9.3 mph 43 % 0.0 in
15:41 32.6 °F 18.4 °F 1015.8 in ESE 16.7 mph 16.7 mph 43 % 0.0 in
15:46 33.2 °F 18.6 °F 1015.8 in ESE 15.1 mph 15.1 mph 42 % 0.0 in
15:51 33.4 °F 18.7 °F 1015.8 in ESE 13.7 mph 13.7 mph 42 % 0.0 in
15:56 33.6 °F 18.6 °F 1015.8 in SE 14.8 mph 14.8 mph 41 % 0.0 in
16:01 33.9 °F 18.8 °F 1015.8 in ESE 11.4 mph 11.4 mph 41 % 0.0 in
16:06 34.3 °F 19.2 °F 1015.8 in ESE 16.4 mph 16.4 mph 41 % 0.0 in
16:11 33.9 °F 19.2 °F 1015.8 in NE 14.8 mph 14.8 mph 42 % 0.0 in
16:16 33.5 °F 19.2 °F 1015.8 in ENE 13.0 mph 13.0 mph 43 % 0.0 in
16:21 33.2 °F 18.9 °F 1015.8 in East 14.8 mph 14.8 mph 43 % 0.0 in
16:26 33.2 °F 19.3 °F 1015.8 in East 18.5 mph 18.5 mph 44 % 0.0 in
16:31 32.9 °F 19.4 °F 1015.8 in ESE 16.7 mph 16.7 mph 45 % 0.0 in
16:36 33.0 °F 19.5 °F 1015.8 in ESE 16.7 mph 16.7 mph 45 % 0.0 in
16:41 32.5 °F 19.7 °F 1015.8 in ESE 11.1 mph 11.1 mph 47 % 0.0 in
16:46 32.4 °F 19.7 °F 1015.8 in SE 14.5 mph 14.5 mph 47 % 0.0 in
16:51 32.0 °F 19.6 °F 1015.8 in ENE 13.0 mph 13.0 mph 48 % 0.0 in
16:56 31.6 °F 19.6 °F 1015.8 in ENE 16.7 mph 16.7 mph 49 % 0.0 in
17:01 31.9 °F 20.2 °F 1015.8 in SE 9.7 mph 9.7 mph 50 % 0.0 in
17:06 31.9 °F 20.2 °F 1015.8 in East 11.1 mph 11.1 mph 50 % 0.0 in
17:11 32.1 °F 20.4 °F 1015.8 in ENE 9.3 mph 9.3 mph 50 % 0.0 in
17:16 32.5 °F 20.4 °F 1015.8 in NE 7.4 mph 7.4 mph 49 % 0.0 in
17:21 32.7 °F 20.3 °F 1015.8 in SE 7.4 mph 7.4 mph 48 % 0.0 in
17:26 32.8 °F 20.0 °F 1015.8 in ESE 11.1 mph 11.1 mph 47 % 0.0 in
17:31 32.7 °F 19.9 °F 1015.8 in East 7.4 mph 7.4 mph 47 % 0.0 in
17:36 33.0 °F 19.1 °F 1015.8 in SSE 9.3 mph 9.3 mph 44 % 0.0 in
17:39 33.4 °F 19.8 °F 1015.8 in ESE 9.5 mph 9.5 mph 45 % 0.0 in
17:44 33.5 °F 19.6 °F 1015.8 in West 5.6 mph 5.6 mph 44 % 0.0 in
17:49 34.5 °F 19.7 °F 1015.8 in WSW 11.4 mph 11.4 mph 42 % 0.0 in
17:54 34.3 °F 19.2 °F 1015.8 in WSW 18.5 mph 18.5 mph 41 % 0.0 in
17:59 34.6 °F 19.1 °F 1015.8 in SW 11.1 mph 11.1 mph 40 % 0.0 in
18:04 35.0 °F 19.0 °F 1014.8 in WSW 9.3 mph 9.3 mph 39 % 0.0 in
18:09 35.0 °F 18.6 °F 1014.8 in SW 14.8 mph 14.8 mph 38 % 0.0 in
18:14 35.0 °F 18.1 °F 1014.8 in SW 13.0 mph 13.0 mph 37 % 0.0 in
18:19 34.3 °F 17.5 °F 1016.8 in SW 18.5 mph 18.5 mph 37 % 0.0 in
18:24 33.8 °F 17.1 °F 1016.8 in SSW 22.5 mph 22.5 mph 37 % 0.0 in
18:29 33.8 °F 17.1 °F 1016.8 in SW 20.4 mph 20.4 mph 37 % 0.0 in
18:34 33.9 °F 17.2 °F 1015.8 in South 13.0 mph 13.0 mph 37 % 0.0 in
18:39 33.9 °F 17.6 °F 1015.8 in SW 16.7 mph 16.7 mph 38 % 0.0 in
18:44 34.1 °F 17.8 °F 1015.8 in SW 5.6 mph 5.6 mph 38 % 0.0 in
18:49 34.2 °F 17.8 °F 1015.8 in SSW 9.3 mph 9.3 mph 38 % 0.0 in
18:54 34.0 °F 17.7 °F 1015.8 in SSE 5.6 mph 5.6 mph 38 % 0.0 in
18:59 34.0 °F 17.7 °F 1015.8 in SSW 9.3 mph 9.3 mph 38 % 0.0 in
19:04 33.5 °F 17.7 °F 1015.8 in WNW 9.3 mph 9.3 mph 39 % 0.0 in
19:09 33.1 °F 17.3 °F 1015.8 in SW 5.8 mph 5.8 mph 39 % 0.0 in
19:14 33.0 °F 17.2 °F 1015.8 in SW 4.7 mph 4.7 mph 39 % 0.0 in
19:15 27.6 °F 15.9 °F 1015.8 in Calm     49 % 0.0 in
19:19 32.8 °F 17.4 °F 1014.8 in WSW 4.7 mph 4.7 mph 40 % 0.0 in
19:24 32.7 °F 17.3 °F 1014.8 in NNE 1.9 mph   40 % 0.0 in
19:25 27.4 °F 15.7 °F 1015.8 in SW 1.6 mph 3.2 mph 49 % 0.0 in
19:29 32.5 °F 17.2 °F 1014.8 in NNE 3.7 mph 3.7 mph 40 % 0.0 in
19:34 32.3 °F 17.0 °F 1013.8 in NNW 1.9 mph 1.9 mph 40 % 0.0 in
19:35 27.4 °F 15.7 °F 1015.8 in Calm   1.6 mph 49 % 0.0 in
19:39 32.3 °F 17.0 °F 1013.8 in SSE 5.6 mph 5.6 mph 40 % 0.0 in
19:44 32.3 °F 17.4 °F 1013.8 in ENE 7.4 mph 7.4 mph 41 % 0.0 in
19:45 27.4 °F 15.7 °F 1015.8 in Calm     49 % 0.0 in
19:49 32.3 °F 17.4 °F 1013.8 in ENE 9.3 mph 9.3 mph 41 % 0.0 in
19:54 32.3 °F 17.4 °F 1013.8 in ENE 10.3 mph 10.3 mph 41 % 0.0 in
19:55 27.5 °F 15.8 °F 1015.8 in SW 1.6 mph 3.2 mph 49 % 0.0 in
19:59 32.3 °F 17.0 °F 1013.8 in SE 7.4 mph 7.4 mph 40 % 0.0 in
20:04 32.2 °F 16.9 °F 1012.8 in ENE 5.6 mph 5.6 mph 40 % 0.0 in
20:05 27.2 °F 15.9 °F 1015.8 in WSW 3.2 mph 3.2 mph 50 % 0.0 in
20:09 32.2 °F 16.9 °F 1012.8 in NNE 7.4 mph 7.4 mph 40 % 0.0 in
20:14 32.1 °F 16.4 °F 1012.8 in ENE 7.4 mph 7.4 mph 39 % 0.0 in
20:15 27.2 °F 15.6 °F 1015.8 in WSW 1.6 mph 3.2 mph 49 % 0.0 in
20:19 32.1 °F 16.4 °F 1013.8 in East 3.7 mph 3.7 mph 39 % 0.0 in
20:24 32.1 °F 16.4 °F 1013.8 in ESE 9.5 mph 9.5 mph 39 % 0.0 in
20:25 27.4 °F 15.7 °F 1015.8 in Calm   3.2 mph 49 % 0.0 in
20:29 32.1 °F 16.4 °F 1013.8 in ESE 10.0 mph 10.0 mph 39 % 0.0 in
20:34 32.0 °F 16.3 °F 1013.8 in ESE 9.3 mph 9.3 mph 39 % 0.0 in
20:35 27.2 °F 15.9 °F 1015.8 in WSW 1.6 mph 3.2 mph 50 % 0.0 in
20:39 31.9 °F 16.6 °F 1013.8 in East 5.6 mph 5.6 mph 40 % 0.0 in
20:44 31.8 °F 16.6 °F 1013.8 in South 5.6 mph 5.6 mph 40 % 0.0 in
20:45 26.6 °F 15.6 °F 1015.8 in WSW 1.6 mph 3.2 mph 51 % 0.0 in
20:49 31.7 °F 16.4 °F 1013.8 in East 7.4 mph 7.4 mph 40 % 0.0 in
20:54 31.6 °F 16.3 °F 1013.8 in ESE 5.6 mph 5.6 mph 40 % 0.0 in
20:55 26.5 °F 15.6 °F 1015.8 in WSW 3.2 mph 3.2 mph 51 % 0.0 in
20:59 31.5 °F 16.7 °F 1013.8 in South 3.7 mph 3.7 mph 41 % 0.0 in
21:04 31.4 °F 16.6 °F 1014.8 in SW 3.7 mph 3.7 mph 41 % 0.0 in
21:05 26.3 °F 15.7 °F 1014.8 in Calm   3.2 mph 52 % 0.0 in
21:09 31.3 °F 16.5 °F 1014.8 in SSE 7.4 mph 7.4 mph 41 % 0.0 in
21:14 31.2 °F 16.4 °F 1014.8 in ENE 2.6 mph 2.6 mph 41 % 0.0 in
21:15 26.5 °F 15.8 °F 1014.8 in WSW 1.6 mph 3.2 mph 52 % 0.0 in
21:19 31.1 °F 16.3 °F 1014.8 in ENE 3.7 mph 3.7 mph 41 % 0.0 in
21:24 31.0 °F 16.2 °F 1014.8 in ENE 2.3 mph   41 % 0.0 in
21:25 26.2 °F 15.6 °F 1014.8 in SW 1.6 mph 4.8 mph 52 % 0.0 in
21:29 30.8 °F 16.4 °F 1014.8 in East 2.3 mph 2.3 mph 42 % 0.0 in
21:34 30.7 °F 16.3 °F 1014.8 in ENE 3.7 mph 3.7 mph 42 % 0.0 in
21:35 26.7 °F 16.0 °F 1014.8 in WSW 1.6 mph 3.2 mph 52 % 0.0 in
21:39 30.6 °F 16.6 °F 1014.8 in Calm     43 % 0.0 in
21:44 30.5 °F 16.5 °F 1014.8 in Calm     43 % 0.0 in
21:45 26.6 °F 15.9 °F 1014.8 in WSW 1.6 mph 3.2 mph 52 % 0.0 in
21:49 30.4 °F 16.4 °F 1014.8 in Calm     43 % 0.0 in
21:54 30.3 °F 16.3 °F 1014.8 in Calm     43 % 0.0 in
21:55 26.6 °F 15.9 °F 1014.8 in Calm   3.2 mph 52 % 0.0 in
21:59 30.3 °F 16.3 °F 1014.8 in SE 1.9 mph 1.9 mph 43 % 0.0 in
22:04 30.2 °F 16.2 °F 1014.8 in ENE 1.9 mph   43 % 0.0 in
22:05 26.4 °F 15.8 °F 1014.8 in SW 3.2 mph 4.8 mph 52 % 0.0 in
22:06 30.1 °F 16.2 °F 1014.8 in ENE 1.9 mph   43 % 0.0 in
22:11 30.0 °F 16.1 °F 1014.8 in Calm     43 % 0.0 in
22:15 26.2 °F 15.9 °F 1014.8 in Calm   3.2 mph 53 % 0.0 in
22:16 30.0 °F 16.1 °F 1014.8 in Calm     43 % 0.0 in
22:21 29.9 °F 16.3 °F 1014.8 in Calm     44 % 0.0 in
22:25 26.0 °F 15.7 °F 1014.8 in WSW 1.6 mph 3.2 mph 53 % 0.0 in
22:26 29.8 °F 16.2 °F 1014.8 in NW 2.6 mph 2.6 mph 44 % 0.0 in
22:31 29.7 °F 16.2 °F 1014.8 in NW 1.4 mph   44 % 0.0 in
22:35 25.9 °F 15.6 °F 1015.8 in Calm   3.2 mph 53 % 0.0 in
22:36 29.5 °F 15.9 °F 1015.8 in Calm     44 % 0.0 in
22:41 29.4 °F 15.9 °F 1015.8 in NW 2.3 mph   44 % 0.0 in
22:45 26.0 °F 15.9 °F 1015.8 in Calm     54 % 0.0 in
22:46 29.3 °F 15.8 °F 1015.8 in Calm     44 % 0.0 in
22:51 29.3 °F 15.8 °F 1016.8 in WNW 2.6 mph   44 % 0.0 in
22:55 26.0 °F 15.7 °F 1014.8 in Calm   1.6 mph 53 % 0.0 in
22:56 29.2 °F 15.7 °F 1016.8 in West 3.7 mph 3.7 mph 44 % 0.0 in
23:01 29.2 °F 16.1 °F 1016.8 in Calm     45 % 0.0 in
23:05 25.8 °F 15.8 °F 1014.8 in NNW 1.6 mph 3.2 mph 54 % 0.0 in
23:06 29.0 °F 15.9 °F 1015.8 in West 1.9 mph   45 % 0.0 in
23:11 29.0 °F 15.9 °F 1015.8 in NW 1.9 mph   45 % 0.0 in
23:15 25.6 °F 15.6 °F 1014.8 in North 1.6 mph 3.2 mph 54 % 0.0 in
23:16 28.9 °F 16.1 °F 1015.8 in NNW 1.9 mph   46 % 0.0 in
23:21 28.7 °F 15.9 °F 1015.8 in ENE 1.9 mph 1.9 mph 46 % 0.0 in
23:25 25.5 °F 15.5 °F 1014.8 in Calm   3.2 mph 54 % 0.0 in
23:26 28.5 °F 15.8 °F 1015.8 in SW 2.3 mph 2.3 mph 46 % 0.0 in
23:31 28.2 °F 15.8 °F 1015.8 in Calm     47 % 0.0 in
23:35 25.4 °F 15.4 °F 1014.8 in Calm   1.6 mph 54 % 0.0 in
23:36 28.0 °F 15.6 °F 1015.8 in Calm     47 % 0.0 in
23:41 27.8 °F 15.4 °F 1015.8 in Calm     47 % 0.0 in
23:45 25.3 °F 15.6 °F 1014.8 in Calm     55 % 0.0 in
23:46 27.7 °F 15.7 °F 1015.8 in Calm     48 % 0.0 in
23:51 27.6 °F 15.6 °F 1014.8 in Calm     48 % 0.0 in
23:55 25.1 °F 15.4 °F 1014.8 in NNE 1.6 mph 1.6 mph 55 % 0.0 in
23:56 27.6 °F 15.6 °F 1014.8 in Calm     48 % 0.0 in
Meteo Sesrovires
Elogis d' Weather Underground - 4 mb

Guio original per  Jim McMurry - jmcmurry@mwt.net Adaptat per a la plantilla per  Wim van der Kuil - Leuven-Template.eu

Trobareu la nostra informacio del temps tambe a:

Weather Underground

AWEKAS